createdAt,value
2017-08-30T00:01:10.231Z,89.00
2017-08-30T00:03:37.665Z,89.30
2017-08-30T00:06:06.105Z,89.60
2017-08-30T00:08:33.545Z,89.50
2017-08-30T00:11:00.979Z,89.80
2017-08-30T00:13:28.436Z,89.90
2017-08-30T00:15:55.856Z,90.00
2017-08-30T00:18:23.293Z,90.00
2017-08-30T00:20:50.721Z,90.00
2017-08-30T00:23:18.164Z,90.00
2017-08-30T00:25:57.322Z,90.00
2017-08-30T00:28:24.759Z,90.10
2017-08-30T00:30:52.198Z,90.10
2017-08-30T00:33:20.627Z,90.20
2017-08-30T00:35:48.061Z,90.30
2017-08-30T00:38:15.493Z,90.10
2017-08-30T00:40:42.928Z,90.10
2017-08-30T00:43:10.366Z,90.10
2017-08-30T00:45:37.808Z,90.10
2017-08-30T00:48:05.239Z,90.00
2017-08-30T00:50:32.676Z,90.30
2017-08-30T00:53:00.108Z,90.00
2017-08-30T00:55:27.546Z,89.80
2017-08-30T00:57:55.802Z,90.10
2017-08-30T01:00:23.240Z,89.90
2017-08-30T01:02:50.671Z,90.10
2017-08-30T01:05:18.116Z,90.10
2017-08-30T01:07:45.539Z,90.10
2017-08-30T01:10:12.976Z,90.10
2017-08-30T01:12:40.404Z,90.20
2017-08-30T01:15:07.848Z,90.20
2017-08-30T01:17:35.275Z,90.10
2017-08-30T01:20:02.712Z,90.10
2017-08-30T01:22:30.144Z,90.30
2017-08-30T01:24:57.585Z,90.30
2017-08-30T01:27:25.016Z,90.10
2017-08-30T01:29:52.446Z,90.20
2017-08-30T01:32:19.882Z,90.20
2017-08-30T01:34:47.308Z,90.20
2017-08-30T01:37:14.749Z,90.10
2017-08-30T01:39:42.178Z,90.10
2017-08-30T01:42:09.741Z,90.20
2017-08-30T01:44:37.168Z,90.10
2017-08-30T01:47:04.608Z,90.10
2017-08-30T01:49:45.684Z,89.70
2017-08-30T01:52:13.141Z,90.00
2017-08-30T01:54:40.577Z,90.10
2017-08-30T01:57:11.684Z,90.10
2017-08-30T01:59:39.121Z,90.10
2017-08-30T02:02:06.552Z,90.20
2017-08-30T02:04:33.985Z,90.40
2017-08-30T02:07:01.426Z,90.30
2017-08-30T02:09:28.855Z,90.30
2017-08-30T02:11:56.325Z,90.40
2017-08-30T02:14:23.756Z,90.40
2017-08-30T02:16:51.195Z,90.50
2017-08-30T02:19:18.633Z,90.20
2017-08-30T02:21:46.073Z,90.10
2017-08-30T02:24:15.273Z,90.10
2017-08-30T02:26:42.718Z,90.30
2017-08-30T02:29:10.153Z,90.50
2017-08-30T02:31:37.592Z,90.70
2017-08-30T02:34:05.037Z,90.50
2017-08-30T02:36:32.497Z,90.40
2017-08-30T02:38:59.929Z,90.40
2017-08-30T02:41:28.366Z,90.30
2017-08-30T02:43:55.809Z,90.40
2017-08-30T02:46:23.269Z,90.50
2017-08-30T02:48:50.714Z,90.30
2017-08-30T02:51:18.145Z,90.70
2017-08-30T02:53:45.592Z,90.50
2017-08-30T02:56:13.113Z,90.50
2017-08-30T02:58:40.552Z,90.60
2017-08-30T03:01:07.982Z,90.60
2017-08-30T03:03:35.430Z,90.50
2017-08-30T03:06:06.628Z,90.60
2017-08-30T03:08:34.075Z,90.60
2017-08-30T03:11:01.508Z,90.40
2017-08-30T03:13:28.948Z,90.60
2017-08-30T03:15:56.380Z,90.30
2017-08-30T03:18:23.815Z,90.30
2017-08-30T03:20:51.258Z,90.30
2017-08-30T03:23:18.696Z,90.30
2017-08-30T03:25:46.131Z,90.60
2017-08-30T03:28:13.573Z,90.50
2017-08-30T03:30:41.010Z,90.50
2017-08-30T03:33:08.456Z,90.40
2017-08-30T03:35:36.917Z,90.40
2017-08-30T03:38:04.369Z,90.10
2017-08-30T03:40:31.806Z,90.20
2017-08-30T03:42:59.238Z,90.20
2017-08-30T03:45:26.671Z,90.40
2017-08-30T03:47:54.112Z,90.30
2017-08-30T03:50:21.553Z,90.30
2017-08-30T03:52:48.984Z,90.30
2017-08-30T03:55:16.502Z,90.60
2017-08-30T03:57:43.933Z,90.20
2017-08-30T04:00:11.368Z,90.30
2017-08-30T04:02:38.804Z,90.40
2017-08-30T04:05:06.247Z,90.50
2017-08-30T04:07:33.684Z,90.50
2017-08-30T04:10:01.138Z,90.40
2017-08-30T04:12:28.565Z,90.30
2017-08-30T04:14:56.013Z,90.40
2017-08-30T04:17:23.440Z,90.40
2017-08-30T04:19:50.888Z,90.30
2017-08-30T04:22:18.313Z,90.20
2017-08-30T04:24:45.752Z,90.50
2017-08-30T04:27:13.190Z,90.40
2017-08-30T04:29:40.647Z,90.30
2017-08-30T04:32:08.118Z,90.40
2017-08-30T04:34:35.554Z,90.60
2017-08-30T04:37:03.104Z,90.60
2017-08-30T04:39:30.544Z,90.60
2017-08-30T04:41:58.057Z,90.70
2017-08-30T04:44:25.489Z,90.50
2017-08-30T04:46:52.982Z,90.40
2017-08-30T04:49:20.408Z,90.20
2017-08-30T04:51:47.849Z,90.20
2017-08-30T04:54:15.285Z,90.20
2017-08-30T04:56:42.809Z,90.00
2017-08-30T04:59:10.236Z,90.00
2017-08-30T05:01:37.721Z,90.10
2017-08-30T05:04:05.149Z,90.10
2017-08-30T05:06:34.584Z,90.20
2017-08-30T05:09:02.020Z,90.20
2017-08-30T05:11:29.497Z,90.00
2017-08-30T05:13:56.936Z,90.10
2017-08-30T05:16:24.370Z,90.10
2017-08-30T05:18:51.849Z,90.10
2017-08-30T05:21:19.289Z,90.30
2017-08-30T05:23:46.726Z,90.30
2017-08-30T05:26:14.177Z,90.30
2017-08-30T05:28:41.612Z,90.40
2017-08-30T05:31:09.056Z,90.30
2017-08-30T05:33:36.488Z,90.30
2017-08-30T05:36:03.938Z,90.30
2017-08-30T05:38:31.373Z,90.20
2017-08-30T05:40:58.812Z,90.00
2017-08-30T05:43:26.270Z,89.80
2017-08-30T05:45:53.709Z,89.00
2017-08-30T05:48:21.149Z,88.20
2017-08-30T05:50:48.598Z,88.30
2017-08-30T05:53:16.045Z,88.30
2017-08-30T05:55:43.507Z,88.00
2017-08-30T05:58:10.992Z,87.40
2017-08-30T06:00:40.900Z,87.60
2017-08-30T06:03:08.342Z,88.30
2017-08-30T06:05:35.774Z,88.30
2017-08-30T06:08:05.204Z,87.70
2017-08-30T06:10:32.637Z,87.60
2017-08-30T06:13:00.086Z,87.50
2017-08-30T06:15:27.520Z,87.30
2017-08-30T06:17:54.983Z,86.20
2017-08-30T06:20:22.427Z,85.70
2017-08-30T06:22:49.869Z,85.30
2017-08-30T06:25:17.300Z,85.20
2017-08-30T06:27:44.744Z,85.30
2017-08-30T06:30:13.137Z,84.80
2017-08-30T06:32:40.573Z,85.60
2017-08-30T06:35:08.009Z,85.40
2017-08-30T06:37:35.477Z,82.80
2017-08-30T06:40:02.926Z,82.40
2017-08-30T06:42:30.365Z,81.90
2017-08-30T06:44:58.829Z,83.00
2017-08-30T06:47:26.274Z,83.10
2017-08-30T06:49:53.724Z,80.90
2017-08-30T06:52:21.159Z,80.90
2017-08-30T06:54:48.617Z,82.20
2017-08-30T06:57:16.057Z,80.80
2017-08-30T06:59:44.488Z,80.60
2017-08-30T07:02:13.971Z,80.00
2017-08-30T07:04:43.387Z,78.00
2017-08-30T07:07:10.830Z,79.10
2017-08-30T07:09:46.579Z,77.60
2017-08-30T07:12:14.013Z,78.00
2017-08-30T07:14:45.617Z,78.40
2017-08-30T07:17:13.165Z,79.70
2017-08-30T07:19:40.631Z,80.20
2017-08-30T07:22:08.074Z,77.10
2017-08-30T07:24:35.562Z,76.80
2017-08-30T07:27:07.689Z,76.90
2017-08-30T07:29:35.137Z,75.40
2017-08-30T07:32:02.568Z,76.10
2017-08-30T07:34:33.637Z,78.20
2017-08-30T07:37:01.080Z,78.00
2017-08-30T07:39:28.523Z,74.80
2017-08-30T07:42:03.355Z,72.70
2017-08-30T07:44:30.796Z,74.90
2017-08-30T07:46:58.234Z,71.50
2017-08-30T07:49:25.685Z,73.00
2017-08-30T07:51:53.120Z,72.50
2017-08-30T07:54:20.564Z,71.20
2017-08-30T07:56:47.992Z,70.70
2017-08-30T07:59:15.441Z,71.90
2017-08-30T08:01:55.872Z,75.30
2017-08-30T08:04:23.317Z,73.80
2017-08-30T08:06:50.749Z,75.20
2017-08-30T08:09:18.184Z,71.80
2017-08-30T08:11:45.645Z,72.00
2017-08-30T08:14:13.093Z,72.50
2017-08-30T08:16:40.535Z,69.00
2017-08-30T08:19:07.977Z,67.90
2017-08-30T08:21:35.441Z,63.90
2017-08-30T08:24:02.870Z,64.70
2017-08-30T08:26:30.312Z,66.20
2017-08-30T08:28:57.740Z,65.80
2017-08-30T08:31:25.184Z,61.30
2017-08-30T08:33:52.627Z,59.50
2017-08-30T08:36:20.063Z,60.50
2017-08-30T08:38:47.502Z,60.60
2017-08-30T08:41:14.963Z,60.00
2017-08-30T08:43:42.400Z,60.40
2017-08-30T08:46:09.864Z,60.10
2017-08-30T08:48:37.293Z,60.00
2017-08-30T08:51:04.741Z,59.40
2017-08-30T08:53:32.178Z,59.70
2017-08-30T08:55:59.620Z,60.10
2017-08-30T08:58:27.057Z,58.30
2017-08-30T09:00:54.506Z,57.90
2017-08-30T09:03:21.944Z,57.10
2017-08-30T09:05:49.377Z,57.00
2017-08-30T09:08:16.834Z,57.10
2017-08-30T09:10:44.279Z,56.40
2017-08-30T09:13:11.732Z,56.70
2017-08-30T09:15:40.174Z,55.80
2017-08-30T09:18:07.612Z,55.70
2017-08-30T09:20:35.052Z,55.60
2017-08-30T09:23:02.502Z,54.80
2017-08-30T09:25:29.928Z,57.20
2017-08-30T09:27:57.364Z,56.80
2017-08-30T09:30:24.913Z,55.10
2017-08-30T09:32:52.350Z,56.00
2017-08-30T09:35:19.788Z,56.00
2017-08-30T09:37:47.301Z,55.70
2017-08-30T09:40:14.747Z,56.10
2017-08-30T09:42:42.188Z,55.20
2017-08-30T09:45:11.705Z,56.70
2017-08-30T09:47:39.146Z,57.10
2017-08-30T09:50:06.586Z,57.70
2017-08-30T09:52:34.033Z,56.20
2017-08-30T09:55:01.470Z,57.10
2017-08-30T09:57:28.908Z,58.70
2017-08-30T09:59:56.341Z,57.20
2017-08-30T10:02:23.784Z,56.60
2017-08-30T10:04:53.296Z,57.20
2017-08-30T10:07:20.728Z,57.30
2017-08-30T10:09:48.241Z,57.00
2017-08-30T10:12:15.670Z,58.80
2017-08-30T10:14:43.109Z,56.70
2017-08-30T10:17:10.549Z,56.20
2017-08-30T10:19:37.996Z,57.10
2017-08-30T10:22:05.505Z,54.30
2017-08-30T10:24:32.941Z,55.30
2017-08-30T10:27:00.376Z,54.80
2017-08-30T10:29:27.828Z,55.60
2017-08-30T10:31:55.260Z,53.40
2017-08-30T10:34:22.709Z,53.70
2017-08-30T10:36:50.142Z,53.10
2017-08-30T10:39:17.779Z,52.90
2017-08-30T10:41:45.312Z,54.00
2017-08-30T10:44:12.832Z,53.10
2017-08-30T10:46:40.271Z,54.20
2017-08-30T10:49:07.715Z,51.70
2017-08-30T10:51:35.153Z,52.50
2017-08-30T10:54:02.603Z,51.60
2017-08-30T10:56:30.032Z,51.80
2017-08-30T10:58:57.486Z,52.90
2017-08-30T11:01:24.929Z,55.10
2017-08-30T11:03:52.384Z,53.80
2017-08-30T11:06:19.820Z,52.70
2017-08-30T11:08:47.259Z,51.60
2017-08-30T11:11:14.694Z,51.20
2017-08-30T11:13:42.155Z,52.10
2017-08-30T11:16:09.596Z,52.20
2017-08-30T11:18:37.023Z,50.70
2017-08-30T11:21:04.468Z,52.50
2017-08-30T11:23:31.911Z,50.50
2017-08-30T11:25:59.348Z,49.20
2017-08-30T11:28:26.798Z,49.40
2017-08-30T11:30:54.300Z,50.50
2017-08-30T11:33:21.753Z,49.60
2017-08-30T11:35:49.184Z,50.60
2017-08-30T11:38:16.623Z,50.70
2017-08-30T11:40:44.063Z,52.70
2017-08-30T11:43:11.502Z,52.40
2017-08-30T11:45:38.941Z,54.90
2017-08-30T11:48:06.372Z,50.80
2017-08-30T11:50:33.816Z,51.40
2017-08-30T11:53:01.253Z,51.80
2017-08-30T11:55:28.693Z,52.00
2017-08-30T11:57:56.120Z,53.60
2017-08-30T12:00:23.580Z,52.80
2017-08-30T12:02:50.988Z,52.80
2017-08-30T12:05:18.485Z,56.10
2017-08-30T12:07:45.920Z,52.20
2017-08-30T12:10:13.357Z,52.70
2017-08-30T12:12:40.796Z,53.20
2017-08-30T12:15:08.225Z,53.30
2017-08-30T12:17:39.794Z,52.60
2017-08-30T12:20:07.226Z,53.10
2017-08-30T12:22:34.657Z,52.60
2017-08-30T12:25:02.093Z,52.60
2017-08-30T12:27:29.537Z,52.90
2017-08-30T12:29:56.965Z,53.10
2017-08-30T12:32:24.405Z,53.40
2017-08-30T12:34:51.832Z,53.80
2017-08-30T12:37:24.868Z,54.10
2017-08-30T12:39:52.302Z,55.30
2017-08-30T12:42:19.732Z,54.40
2017-08-30T12:44:47.168Z,57.00
2017-08-30T12:47:14.605Z,54.60
2017-08-30T12:49:42.033Z,54.50
2017-08-30T12:52:09.469Z,55.30
2017-08-30T12:54:36.900Z,55.00
2017-08-30T12:57:04.336Z,53.50
2017-08-30T12:59:31.772Z,54.50
2017-08-30T13:01:59.208Z,56.10
2017-08-30T13:04:26.641Z,55.90
2017-08-30T13:06:54.071Z,52.90
2017-08-30T13:09:21.496Z,57.00
2017-08-30T13:11:48.942Z,51.40
2017-08-30T13:14:16.375Z,53.60
2017-08-30T13:16:43.804Z,50.60
2017-08-30T13:19:11.248Z,50.90
2017-08-30T13:21:38.681Z,50.60
2017-08-30T13:24:06.114Z,50.90
2017-08-30T13:26:33.540Z,54.80
2017-08-30T13:29:00.990Z,54.80
2017-08-30T13:31:28.421Z,56.30
2017-08-30T13:33:55.856Z,55.30
2017-08-30T13:36:23.285Z,53.90
2017-08-30T13:38:50.769Z,53.00
2017-08-30T13:41:18.201Z,55.10
2017-08-30T13:43:45.631Z,54.90
2017-08-30T13:46:13.066Z,54.20
2017-08-30T13:48:40.505Z,54.90
2017-08-30T13:51:08.146Z,55.50
2017-08-30T13:53:35.583Z,55.80
2017-08-30T13:56:03.012Z,53.50
2017-08-30T13:58:30.453Z,53.50
2017-08-30T14:00:57.880Z,53.40
2017-08-30T14:03:25.329Z,52.10
2017-08-30T14:05:52.757Z,52.30
2017-08-30T14:08:20.195Z,53.00
2017-08-30T14:10:47.640Z,54.00
2017-08-30T14:13:15.060Z,53.20
2017-08-30T14:15:42.491Z,54.80
2017-08-30T14:18:09.939Z,54.30
2017-08-30T14:20:37.377Z,55.00
2017-08-30T14:23:04.804Z,55.40
2017-08-30T14:25:32.237Z,52.80
2017-08-30T14:27:59.665Z,54.30
2017-08-30T14:30:27.103Z,54.40
2017-08-30T14:32:54.537Z,55.00
2017-08-30T14:35:21.977Z,57.00
2017-08-30T14:37:49.405Z,54.20
2017-08-30T14:40:16.844Z,54.50
2017-08-30T14:42:44.268Z,56.10
2017-08-30T14:45:11.704Z,56.00
2017-08-30T14:47:39.136Z,55.90
2017-08-30T14:50:06.578Z,57.20
2017-08-30T14:52:36.010Z,58.80
2017-08-30T14:55:03.449Z,57.30
2017-08-30T14:57:30.876Z,58.20
2017-08-30T14:59:59.317Z,56.30
2017-08-30T15:02:41.031Z,60.00
2017-08-30T15:05:08.699Z,61.10
2017-08-30T15:07:39.224Z,59.50
2017-08-30T15:10:06.664Z,60.50
2017-08-30T15:12:36.229Z,59.40
2017-08-30T15:15:03.660Z,60.40
2017-08-30T15:17:31.092Z,61.30
2017-08-30T15:19:58.511Z,58.00
2017-08-30T15:22:27.932Z,59.70
2017-08-30T15:24:55.360Z,62.40
2017-08-30T15:27:24.799Z,60.40
2017-08-30T15:29:52.233Z,58.10
2017-08-30T15:32:19.674Z,60.50
2017-08-30T15:34:47.117Z,59.00
2017-08-30T15:37:14.554Z,60.20
2017-08-30T15:39:41.981Z,62.50
2017-08-30T15:42:09.427Z,63.10
2017-08-30T15:44:39.183Z,63.70
2017-08-30T15:47:06.616Z,62.60
2017-08-30T15:49:34.897Z,61.70
2017-08-30T15:52:02.341Z,61.40
2017-08-30T15:54:29.769Z,62.20
2017-08-30T15:56:57.216Z,62.40
2017-08-30T15:59:24.646Z,62.20
2017-08-30T16:01:52.080Z,62.70
2017-08-30T16:04:19.513Z,62.20
2017-08-30T16:06:46.941Z,63.50
2017-08-30T16:09:15.733Z,62.20
2017-08-30T16:11:43.218Z,64.40
2017-08-30T16:14:11.196Z,64.10
2017-08-30T16:16:38.742Z,65.70
2017-08-30T16:19:06.217Z,64.00
2017-08-30T16:21:33.668Z,62.90
2017-08-30T16:24:01.116Z,64.00
2017-08-30T16:26:28.537Z,62.40
2017-08-30T16:28:55.980Z,62.70
2017-08-30T16:31:23.421Z,61.60
2017-08-30T16:33:50.957Z,61.60
2017-08-30T16:36:18.396Z,62.40
2017-08-30T16:38:45.832Z,63.20
2017-08-30T16:41:21.787Z,61.50
2017-08-30T16:43:49.221Z,62.40
2017-08-30T16:46:16.681Z,59.40
2017-08-30T16:48:45.104Z,59.80
2017-08-30T16:51:12.533Z,61.60
2017-08-30T16:53:39.992Z,61.40
2017-08-30T16:56:07.422Z,59.80
2017-08-30T16:58:35.266Z,61.40
2017-08-30T17:01:02.689Z,62.80
2017-08-30T17:03:30.133Z,61.90
2017-08-30T17:05:57.601Z,61.00
2017-08-30T17:08:25.036Z,61.30
2017-08-30T17:10:52.513Z,62.50
2017-08-30T17:13:19.960Z,65.20
2017-08-30T17:15:47.404Z,65.70
2017-08-30T17:18:14.854Z,66.80
2017-08-30T17:20:42.341Z,66.60
2017-08-30T17:23:09.780Z,65.50
2017-08-30T17:25:37.223Z,65.00
2017-08-30T17:28:04.668Z,67.20
2017-08-30T17:30:32.121Z,67.40
2017-08-30T17:33:05.477Z,69.40
2017-08-30T17:35:32.916Z,68.80
2017-08-30T17:38:00.341Z,65.30
2017-08-30T17:40:27.795Z,67.80
2017-08-30T17:42:55.242Z,66.40
2017-08-30T17:45:22.669Z,66.00
2017-08-30T17:47:50.109Z,67.20
2017-08-30T17:50:17.570Z,70.10
2017-08-30T17:52:45.001Z,69.40
2017-08-30T17:55:12.448Z,69.50
2017-08-30T17:57:39.957Z,71.20
2017-08-30T18:00:07.405Z,71.00
2017-08-30T18:02:34.833Z,71.40
2017-08-30T18:05:02.287Z,72.90
2017-08-30T18:07:29.729Z,72.90
2017-08-30T18:09:57.160Z,73.90
2017-08-30T18:12:24.592Z,72.60
2017-08-30T18:14:52.030Z,68.40
2017-08-30T18:17:19.488Z,72.80
2017-08-30T18:19:46.942Z,73.30
2017-08-30T18:22:14.368Z,74.90
2017-08-30T18:24:41.805Z,74.70
2017-08-30T18:27:09.249Z,75.10
2017-08-30T18:29:36.687Z,74.10
2017-08-30T18:32:04.136Z,73.80
2017-08-30T18:34:31.569Z,74.20
2017-08-30T18:36:59.009Z,76.20
2017-08-30T18:39:26.447Z,75.50
2017-08-30T18:41:53.893Z,75.90
2017-08-30T18:44:21.325Z,77.00
2017-08-30T18:46:48.777Z,75.90
2017-08-30T18:49:16.203Z,76.00
2017-08-30T18:51:43.697Z,75.40
2017-08-30T18:54:11.133Z,74.80
2017-08-30T18:56:38.573Z,74.00
2017-08-30T18:59:06.005Z,76.20
2017-08-30T19:01:33.457Z,77.50
2017-08-30T19:04:00.907Z,75.80
2017-08-30T19:06:28.344Z,76.70
2017-08-30T19:08:55.780Z,76.60
2017-08-30T19:11:23.225Z,73.60
2017-08-30T19:13:50.644Z,72.80
2017-08-30T19:16:18.084Z,72.30
2017-08-30T19:18:46.814Z,72.50
2017-08-30T19:21:15.972Z,73.40
2017-08-30T19:23:45.149Z,76.60
2017-08-30T19:26:13.343Z,74.00
2017-08-30T19:28:42.582Z,73.70
2017-08-30T19:31:11.779Z,75.10
2017-08-30T19:33:40.656Z,76.40
2017-08-30T19:36:10.825Z,75.00
2017-08-30T19:38:40.946Z,74.30
2017-08-30T19:41:10.885Z,76.30
2017-08-30T19:43:41.312Z,73.40
2017-08-30T19:46:11.428Z,73.10
2017-08-30T19:48:39.380Z,71.90
2017-08-30T19:51:08.735Z,71.30
2017-08-30T19:53:37.468Z,72.40
2017-08-30T19:56:07.818Z,76.30
2017-08-30T19:58:35.862Z,75.20
2017-08-30T20:01:03.995Z,74.30
2017-08-30T20:03:32.904Z,71.90
2017-08-30T20:06:01.459Z,71.40
2017-08-30T20:08:29.735Z,72.70
2017-08-30T20:10:57.912Z,75.80
2017-08-30T20:13:27.571Z,74.20
2017-08-30T20:15:58.937Z,74.20
2017-08-30T20:18:28.263Z,72.80
2017-08-30T20:20:56.744Z,73.10
2017-08-30T20:23:25.027Z,71.50
2017-08-30T20:25:53.807Z,73.00
2017-08-30T20:28:22.082Z,74.10
2017-08-30T20:30:50.408Z,76.90
2017-08-30T20:33:19.431Z,75.20
2017-08-30T20:35:47.830Z,75.30
2017-08-30T20:38:20.176Z,73.70
2017-08-30T20:40:48.835Z,73.70
2017-08-30T20:43:17.477Z,75.80
2017-08-30T20:45:46.346Z,73.60
2017-08-30T20:48:17.906Z,76.80
2017-08-30T20:50:48.081Z,75.40
2017-08-30T20:53:16.927Z,77.00
2017-08-30T20:55:45.174Z,77.10
2017-08-30T20:58:13.573Z,78.20
2017-08-30T21:00:43.588Z,78.50
2017-08-30T21:03:12.360Z,78.50
2017-08-30T21:05:40.754Z,77.80
2017-08-30T21:08:09.644Z,78.10
2017-08-30T21:10:38.586Z,78.50
2017-08-30T21:13:06.912Z,77.60
2017-08-30T21:15:35.289Z,78.80
2017-08-30T21:18:03.695Z,78.70
2017-08-30T21:20:32.039Z,80.10
2017-08-30T21:23:02.164Z,81.10
2017-08-30T21:25:31.519Z,80.20
2017-08-30T21:28:00.354Z,79.90
2017-08-30T21:30:29.040Z,80.40
2017-08-30T21:32:59.006Z,81.90
2017-08-30T21:35:28.762Z,82.70
2017-08-30T21:37:58.014Z,82.30
2017-08-30T21:40:28.641Z,82.80
2017-08-30T21:43:11.716Z,82.80
2017-08-30T21:48:25.884Z,83.60
2017-08-30T21:50:54.362Z,84.40
2017-08-30T21:53:22.689Z,84.40
2017-08-30T21:55:52.091Z,84.70
2017-08-30T21:58:20.264Z,84.80
2017-08-30T22:00:50.383Z,85.20
2017-08-30T22:03:22.046Z,85.60
2017-08-30T22:05:52.062Z,85.50
2017-08-30T22:08:22.378Z,85.70
2017-08-30T22:10:52.087Z,85.50
2017-08-30T22:13:21.181Z,86.20
2017-08-30T22:15:49.003Z,86.20
2017-08-30T22:18:18.508Z,86.60
2017-08-30T22:20:46.784Z,85.30
2017-08-30T22:23:15.265Z,86.70
2017-08-30T22:25:43.584Z,84.80
2017-08-30T22:28:12.022Z,84.50
2017-08-30T22:30:40.714Z,85.50
2017-08-30T22:33:14.514Z,84.10
2017-08-30T22:35:44.469Z,84.30
2017-08-30T22:38:12.910Z,84.10
2017-08-30T22:40:40.980Z,84.80
2017-08-30T22:43:09.974Z,83.80
2017-08-30T22:45:39.581Z,83.30
2017-08-30T22:48:10.045Z,83.40
2017-08-30T22:50:39.349Z,83.00
2017-08-30T22:53:08.766Z,83.80
2017-08-30T22:55:40.913Z,82.80
2017-08-30T22:58:09.394Z,82.90
2017-08-30T23:00:37.649Z,82.50
2017-08-30T23:03:06.681Z,83.50
2017-08-30T23:05:35.263Z,83.40
2017-08-30T23:08:05.954Z,81.90
2017-08-30T23:10:34.356Z,81.10
2017-08-30T23:13:02.853Z,82.00
2017-08-30T23:15:35.740Z,84.00
2017-08-30T23:18:04.320Z,84.10
2017-08-30T23:20:32.646Z,82.70
2017-08-30T23:23:01.075Z,84.10
2017-08-30T23:25:31.720Z,83.20
2017-08-30T23:28:00.903Z,82.50
2017-08-30T23:30:31.534Z,82.50
2017-08-30T23:33:01.038Z,82.70
2017-08-30T23:35:29.210Z,82.50
2017-08-30T23:37:58.511Z,82.50
2017-08-30T23:40:27.604Z,84.40
2017-08-30T23:42:56.961Z,83.50
2017-08-30T23:45:26.204Z,82.60
2017-08-30T23:47:54.566Z,82.70
2017-08-30T23:50:23.984Z,82.50
2017-08-30T23:52:55.970Z,82.70
2017-08-30T23:55:26.099Z,83.20
2017-08-30T23:57:54.544Z,83.00
